TimeEDT,TemperatureF,Dew PointF,Humidity,Sea Level PressureIn,VisibilityMPH,Wind Direction,Wind SpeedMPH,Gust SpeedMPH,PrecipitationIn,Events,Conditions,WindDirDegrees,DateUTC
12:54 AM,55.0,53.1,93,30.05,8.0,Calm,Calm,-,N/A,,Clear,0,2012-10-06 04:54:00
1:54 AM,54.0,52.0,93,30.03,8.0,SW,3.5,-,N/A,,Clear,230,2012-10-06 05:54:00
2:54 AM,53.1,52.0,96,30.01,6.0,Calm,Calm,-,N/A,,Partly Cloudy,0,2012-10-06 06:54:00
3:44 AM,51.8,50.0,94,30.03,1.8,Calm,Calm,-,N/A,,Scattered Clouds,0,2012-10-06 07:44:00
3:54 AM,51.1,50.0,96,29.98,4.0,SW,3.5,-,N/A,,Partly Cloudy,230,2012-10-06 07:54:00
3:57 AM,51.8,50.0,94,30.03,1.8,WSW,3.5,-,N/A,,Scattered Clouds,240,2012-10-06 07:57:00
3:59 AM,51.8,50.0,94,30.03,1.0,Calm,Calm,-,N/A,,Mist,0,2012-10-06 07:59:00
4:04 AM,51.8,50.0,94,30.03,0.5,Calm,Calm,-,N/A,Fog,Fog,0,2012-10-06 08:04:00
4:26 AM,51.8,50.0,94,30.02,1.0,Calm,Calm,-,N/A,,Mist,0,2012-10-06 08:26:00
4:28 AM,51.8,50.0,94,30.02,1.5,Calm,Calm,-,N/A,,Scattered Clouds,0,2012-10-06 08:28:00
4:31 AM,51.8,50.0,94,30.02,3.0,Calm,Calm,-,N/A,,Scattered Clouds,0,2012-10-06 08:31:00
4:41 AM,51.8,50.0,94,30.02,1.8,Calm,Calm,-,N/A,,Partly Cloudy,0,2012-10-06 08:41:00
4:45 AM,51.8,50.0,94,30.02,2.0,Calm,Calm,-,N/A,,Clear,0,2012-10-06 08:45:00
4:54 AM,51.1,50.0,96,29.97,4.0,Calm,Calm,-,N/A,,Clear,0,2012-10-06 08:54:00
4:59 AM,51.8,50.0,94,30.03,2.5,Calm,Calm,-,N/A,,Partly Cloudy,0,2012-10-06 08:59:00
5:09 AM,50.0,48.2,94,30.03,6.0,NW,5.8,-,N/A,,Partly Cloudy,320,2012-10-06 09:09:00
5:27 AM,51.8,50.0,94,30.03,4.0,NW,5.8,-,N/A,,Mostly Cloudy,320,2012-10-06 09:27:00
5:30 AM,50.0,50.0,100,30.03,1.8,NNW,6.9,-,N/A,,Mostly Cloudy,330,2012-10-06 09:30:00
5:36 AM,51.8,50.0,94,30.03,0.8,NNW,9.2,-,N/A,,Mostly Cloudy,340,2012-10-06 09:36:00
5:47 AM,51.8,50.0,94,30.04,0.2,NNW,5.8,-,N/A,Fog,Fog,340,2012-10-06 09:47:00
5:54 AM,52.0,51.1,97,29.99,0.2,Calm,Calm,-,N/A,Fog,Fog,0,2012-10-06 09:54:00
5:57 AM,51.8,51.8,100,30.04,0.5,Calm,Calm,-,N/A,Fog,Fog,0,2012-10-06 09:57:00
6:09 AM,51.8,51.8,100,30.04,0.2,West,3.5,-,N/A,Fog,Fog,280,2012-10-06 10:09:00
6:28 AM,51.8,51.8,100,30.05,0.2,North,4.6,-,N/A,Fog,Fog,350,2012-10-06 10:28:00
6:33 AM,53.6,51.8,94,30.05,1.0,NW,4.6,-,N/A,,Mist,320,2012-10-06 10:33:00
6:35 AM,51.8,51.8,100,30.05,2.0,NNW,5.8,-,N/A,,Overcast,330,2012-10-06 10:35:00
6:43 AM,51.8,51.8,100,30.05,1.0,NNW,5.8,-,N/A,,Mist,340,2012-10-06 10:43:00
6:51 AM,53.6,51.8,94,30.05,1.0,NW,3.5,-,N/A,,Mist,310,2012-10-06 10:51:00
6:54 AM,52.0,51.1,97,30.01,0.5,Calm,Calm,-,N/A,Fog,Fog,0,2012-10-06 10:54:00
7:07 AM,51.8,51.8,100,30.06,0.5,Calm,Calm,-,N/A,Fog,Fog,0,2012-10-06 11:07:00
7:54 AM,52.0,52.0,100,30.02,0.5,North,4.6,-,N/A,Fog,Fog,350,2012-10-06 11:54:00
8:17 AM,53.6,51.8,94,30.06,9.0,North,10.4,-,N/A,Fog,Fog,360,2012-10-06 12:17:00
8:54 AM,55.9,53.1,90,30.00,7.0,Calm,Calm,-,N/A,Fog,Fog,0,2012-10-06 12:54:00
9:54 AM,61.0,57.0,87,29.98,10.0,Calm,Calm,-,N/A,,Clear,0,2012-10-06 13:54:00
10:54 AM,66.0,59.0,78,29.97,10.0,Variable,3.5,-,N/A,,Clear,0,2012-10-06 14:54:00
11:54 AM,71.1,55.0,57,29.97,10.0,NNW,6.9,-,N/A,,Partly Cloudy,340,2012-10-06 15:54:00
12:54 PM,72.0,55.9,57,29.97,10.0,North,12.7,20.7,N/A,,Clear,350,2012-10-06 16:54:00
1:54 PM,73.0,57.0,57,29.95,10.0,NNW,16.1,20.7,N/A,,Clear,340,2012-10-06 17:54:00
2:54 PM,71.1,59.0,66,29.94,10.0,NNW,13.8,-,N/A,,Scattered Clouds,330,2012-10-06 18:54:00
3:54 PM,71.1,57.9,63,29.94,10.0,North,9.2,-,N/A,,Scattered Clouds,360,2012-10-06 19:54:00
4:54 PM,64.9,57.0,75,29.94,10.0,NNW,9.2,-,N/A,,Overcast,330,2012-10-06 20:54:00
5:54 PM,63.0,55.0,75,29.96,10.0,NNW,12.7,-,N/A,,Mostly Cloudy,340,2012-10-06 21:54:00
6:54 PM,60.1,53.1,78,29.98,10.0,NNW,17.3,23.0,N/A,,Mostly Cloudy,340,2012-10-06 22:54:00
7:54 PM,57.9,52.0,81,30.00,10.0,NNW,15.0,-,N/A,,Clear,340,2012-10-06 23:54:00
8:54 PM,57.0,51.1,81,30.00,10.0,NNW,15.0,-,N/A,,Partly Cloudy,340,2012-10-07 00:54:00
9:06 PM,57.2,51.8,82,30.04,10.0,NNW,16.1,23.0,N/A,,Mostly Cloudy,340,2012-10-07 01:06:00
9:54 PM,55.9,51.1,84,30.01,10.0,North,10.4,-,N/A,,Scattered Clouds,350,2012-10-07 01:54:00
10:54 PM,55.0,50.0,83,30.02,10.0,North,12.7,21.9,N/A,,Mostly Cloudy,350,2012-10-07 02:54:00
11:06 PM,55.4,50.0,82,30.06,10.0,North,10.4,-,N/A,,Scattered Clouds,350,2012-10-07 03:06:00
11:54 PM,55.0,50.0,83,30.00,10.0,North,8.1,-,N/A,,Mostly Cloudy,350,2012-10-07 03:54:00